WESTPORT MEDIA Westport In The Media

Enter your "Place, State", US Zip Code or ICAO:  

Nice, France

 Lat: 43.65N, Lon: 7.20E
ICAO Used: LFMN
Current Conditions
Updated: 8:00 PM GMT1 SAT AUG 23 2014
Sun & Moon Information
Partly Cloudy
Partly Cloudy
Temp: 24°C
Humidity: 78%
Wind Speed: E 21 MPH
Barometer: 1010 mb
Dewpoint: 20°C
Heat Index: 24°C
Wind Chill: 24°C
Civil Twilight: 5:13 AM GMT1 Moon Phase:
Waning Crescent Moon
Sunrise: 5:44 AM GMT1
Sunset: 7:21 PM GMT1
Civil Twilight: 7:52 PM GMT1
Forecast for Nice, France:
(Forecast based on TAF for )
0800 PM GMT1 SAT AUG 23 2014
  
EVENING OVERNIGHT MORNING AFTERNOON EVENING OVERNIGHT
Fair Fair Fair Fair Fair Fair
ZoneCast:
Dated: 0800 PM GMT1 SAT AUG 23 2014
Evening...Becoming fair with winds from the east at 12 mph.

Overnight...Fair with winds from the east at 12 mph. Becoming mostly cloudy with winds from the northnorthwest at 7 mph.

Morning...Mostly cloudy with winds from the northnorthwest at 7 mph. Becoming fair with winds from the southeast at 12 mph.

Afternoon...Fair with winds from the southeast at 12 mph.

Evening...Fair with winds from the southeast at 12 mph.

Overnight...Fair with winds from the southeast at 12 mph.

Original Encoded TAF:
Dated: 0800 PM GMT1 SAT AUG 23 2014
TAF LFMN 231700Z 2318/2424 22018KT 9999 FEW033 
     BECMG 2319/2321 09010KT 
     BECMG 2401/2403 34006KT BKN015 
     BECMG 2410/2412 12010KT CAVOK